sensor_id;sensor_type;location;lat;lon;timestamp;P1;durP1;ratioP1;P2;durP2;ratioP2
43807;SDS011;29438;50.664;10.098;2022-11-20T00:01:19;14.85;;;6.85;;
43807;SDS011;29438;50.664;10.098;2022-11-20T00:03:46;7.15;;;3.42;;
43807;SDS011;29438;50.664;10.098;2022-11-20T00:06:13;8.25;;;3.83;;
43807;SDS011;29438;50.664;10.098;2022-11-20T00:08:40;11.85;;;3.97;;
43807;SDS011;29438;50.664;10.098;2022-11-20T00:11:06;8.40;;;3.67;;
43807;SDS011;29438;50.664;10.098;2022-11-20T00:13:37;9.52;;;3.28;;
43807;SDS011;29438;50.664;10.098;2022-11-20T00:16:03;13.20;;;4.03;;
43807;SDS011;29438;50.664;10.098;2022-11-20T00:18:30;6.43;;;2.70;;
43807;SDS011;29438;50.664;10.098;2022-11-20T00:21:01;7.47;;;2.55;;
43807;SDS011;29438;50.664;10.098;2022-11-20T00:25:56;7.45;;;2.50;;
43807;SDS011;29438;50.664;10.098;2022-11-20T00:28:27;14.13;;;3.40;;
43807;SDS011;29438;50.664;10.098;2022-11-20T00:30:54;7.25;;;2.25;;
43807;SDS011;29438;50.664;10.098;2022-11-20T00:33:32;13.93;;;3.83;;
43807;SDS011;29438;50.664;10.098;2022-11-20T00:36:02;8.52;;;3.92;;
43807;SDS011;29438;50.664;10.098;2022-11-20T00:38:29;12.75;;;6.32;;
43807;SDS011;29438;50.664;10.098;2022-11-20T00:41:00;10.93;;;4.40;;
43807;SDS011;29438;50.664;10.098;2022-11-20T00:43:27;6.07;;;2.88;;
43807;SDS011;29438;50.664;10.098;2022-11-20T00:46:03;5.63;;;2.85;;
43807;SDS011;29438;50.664;10.098;2022-11-20T00:48:33;9.45;;;2.80;;
43807;SDS011;29438;50.664;10.098;2022-11-20T00:51:00;4.25;;;1.75;;
43807;SDS011;29438;50.664;10.098;2022-11-20T00:53:25;3.65;;;2.50;;
43807;SDS011;29438;50.664;10.098;2022-11-20T00:58:20;8.13;;;1.88;;
43807;SDS011;29438;50.664;10.098;2022-11-20T01:00:46;7.13;;;2.35;;
43807;SDS011;29438;50.664;10.098;2022-11-20T01:03:12;7.18;;;2.00;;
43807;SDS011;29438;50.664;10.098;2022-11-20T01:05:38;4.88;;;2.03;;
43807;SDS011;29438;50.664;10.098;2022-11-20T01:08:03;7.72;;;3.03;;
43807;SDS011;29438;50.664;10.098;2022-11-20T01:10:29;4.47;;;2.03;;
43807;SDS011;29438;50.664;10.098;2022-11-20T01:12:54;5.60;;;2.20;;
43807;SDS011;29438;50.664;10.098;2022-11-20T01:15:39;4.43;;;2.13;;
43807;SDS011;29438;50.664;10.098;2022-11-20T01:18:04;1.45;;;0.57;;
43807;SDS011;29438;50.664;10.098;2022-11-20T01:20:33;2.08;;;1.05;;
43807;SDS011;29438;50.664;10.098;2022-11-20T01:23:00;5.22;;;2.20;;
43807;SDS011;29438;50.664;10.098;2022-11-20T01:25:25;3.72;;;2.13;;
43807;SDS011;29438;50.664;10.098;2022-11-20T01:27:51;5.85;;;1.92;;
43807;SDS011;29438;50.664;10.098;2022-11-20T01:30:16;4.30;;;1.92;;
43807;SDS011;29438;50.664;10.098;2022-11-20T01:32:42;2.13;;;1.65;;
43807;SDS011;29438;50.664;10.098;2022-11-20T01:35:07;2.65;;;1.63;;
43807;SDS011;29438;50.664;10.098;2022-11-20T01:37:34;7.53;;;2.75;;
43807;SDS011;29438;50.664;10.098;2022-11-20T01:40:00;4.95;;;2.08;;
43807;SDS011;29438;50.664;10.098;2022-11-20T01:42:25;2.92;;;1.50;;
43807;SDS011;29438;50.664;10.098;2022-11-20T01:48:15;5.55;;;2.10;;
43807;SDS011;29438;50.664;10.098;2022-11-20T01:50:41;7.30;;;2.63;;
43807;SDS011;29438;50.664;10.098;2022-11-20T01:53:08;6.80;;;2.53;;
43807;SDS011;29438;50.664;10.098;2022-11-20T01:55:39;4.78;;;2.65;;
43807;SDS011;29438;50.664;10.098;2022-11-20T01:58:18;6.85;;;3.30;;
43807;SDS011;29438;50.664;10.098;2022-11-20T02:00:46;6.53;;;2.78;;
43807;SDS011;29438;50.664;10.098;2022-11-20T02:03:12;6.95;;;2.38;;
43807;SDS011;29438;50.664;10.098;2022-11-20T02:05:43;5.55;;;2.95;;
43807;SDS011;29438;50.664;10.098;2022-11-20T02:08:19;8.90;;;4.00;;
43807;SDS011;29438;50.664;10.098;2022-11-20T02:10:46;8.07;;;3.55;;
43807;SDS011;29438;50.664;10.098;2022-11-20T02:13:12;6.95;;;2.17;;
43807;SDS011;29438;50.664;10.098;2022-11-20T02:15:56;4.40;;;1.77;;
43807;SDS011;29438;50.664;10.098;2022-11-20T02:18:22;6.35;;;3.00;;
43807;SDS011;29438;50.664;10.098;2022-11-20T02:20:50;13.35;;;2.38;;
43807;SDS011;29438;50.664;10.098;2022-11-20T02:23:25;4.60;;;2.28;;
43807;SDS011;29438;50.664;10.098;2022-11-20T02:25:55;5.38;;;1.98;;
43807;SDS011;29438;50.664;10.098;2022-11-20T02:28:22;7.43;;;2.67;;
43807;SDS011;29438;50.664;10.098;2022-11-20T02:30:48;6.78;;;3.10;;
43807;SDS011;29438;50.664;10.098;2022-11-20T02:33:13;7.43;;;3.22;;
43807;SDS011;29438;50.664;10.098;2022-11-20T02:35:40;6.45;;;2.58;;
43807;SDS011;29438;50.664;10.098;2022-11-20T02:38:07;5.80;;;2.65;;
43807;SDS011;29438;50.664;10.098;2022-11-20T02:40:33;7.40;;;2.30;;
43807;SDS011;29438;50.664;10.098;2022-11-20T02:42:59;5.43;;;2.33;;
43807;SDS011;29438;50.664;10.098;2022-11-20T02:45:25;5.43;;;1.92;;
43807;SDS011;29438;50.664;10.098;2022-11-20T02:47:51;6.10;;;2.53;;
43807;SDS011;29438;50.664;10.098;2022-11-20T02:50:17;6.40;;;2.00;;
43807;SDS011;29438;50.664;10.098;2022-11-20T02:52:43;5.55;;;2.40;;
43807;SDS011;29438;50.664;10.098;2022-11-20T02:55:08;9.65;;;2.97;;
43807;SDS011;29438;50.664;10.098;2022-11-20T02:57:34;3.58;;;1.83;;
43807;SDS011;29438;50.664;10.098;2022-11-20T03:00:01;7.35;;;3.15;;
43807;SDS011;29438;50.664;10.098;2022-11-20T03:02:31;3.25;;;1.33;;
43807;SDS011;29438;50.664;10.098;2022-11-20T03:04:57;5.78;;;2.50;;
43807;SDS011;29438;50.664;10.098;2022-11-20T03:07:22;4.30;;;2.03;;
43807;SDS011;29438;50.664;10.098;2022-11-20T03:09:48;7.90;;;2.45;;
43807;SDS011;29438;50.664;10.098;2022-11-20T03:12:14;10.70;;;2.00;;
43807;SDS011;29438;50.664;10.098;2022-11-20T03:14:39;5.65;;;1.95;;
43807;SDS011;29438;50.664;10.098;2022-11-20T03:17:05;7.57;;;2.13;;
43807;SDS011;29438;50.664;10.098;2022-11-20T03:19:31;7.45;;;2.85;;
43807;SDS011;29438;50.664;10.098;2022-11-20T03:21:56;6.53;;;2.65;;
43807;SDS011;29438;50.664;10.098;2022-11-20T03:24:22;7.65;;;2.92;;
43807;SDS011;29438;50.664;10.098;2022-11-20T03:26:48;7.18;;;2.80;;
43807;SDS011;29438;50.664;10.098;2022-11-20T03:29:13;10.50;;;3.58;;
43807;SDS011;29438;50.664;10.098;2022-11-20T03:31:40;16.83;;;4.82;;
43807;SDS011;29438;50.664;10.098;2022-11-20T03:34:06;7.03;;;2.35;;
43807;SDS011;29438;50.664;10.098;2022-11-20T03:36:34;11.80;;;4.40;;
43807;SDS011;29438;50.664;10.098;2022-11-20T03:38:59;9.10;;;3.53;;
43807;SDS011;29438;50.664;10.098;2022-11-20T03:41:29;8.70;;;3.42;;
43807;SDS011;29438;50.664;10.098;2022-11-20T03:46:23;6.93;;;2.72;;
43807;SDS011;29438;50.664;10.098;2022-11-20T03:48:49;3.67;;;2.78;;
43807;SDS011;29438;50.664;10.098;2022-11-20T03:51:16;9.98;;;4.35;;
43807;SDS011;29438;50.664;10.098;2022-11-20T03:53:49;11.70;;;5.05;;
43807;SDS011;29438;50.664;10.098;2022-11-20T03:56:17;10.40;;;5.40;;
43807;SDS011;29438;50.664;10.098;2022-11-20T03:58:45;7.07;;;2.78;;
43807;SDS011;29438;50.664;10.098;2022-11-20T04:01:11;11.80;;;4.60;;
43807;SDS011;29438;50.664;10.098;2022-11-20T04:03:40;11.18;;;4.47;;
43807;SDS011;29438;50.664;10.098;2022-11-20T04:06:11;15.48;;;5.97;;
43807;SDS011;29438;50.664;10.098;2022-11-20T04:08:39;12.85;;;4.30;;
43807;SDS011;29438;50.664;10.098;2022-11-20T04:11:12;10.02;;;4.70;;
43807;SDS011;29438;50.664;10.098;2022-11-20T04:13:40;14.32;;;6.78;;
43807;SDS011;29438;50.664;10.098;2022-11-20T04:16:07;16.35;;;5.45;;
43807;SDS011;29438;50.664;10.098;2022-11-20T04:18:34;11.40;;;4.50;;
43807;SDS011;29438;50.664;10.098;2022-11-20T04:21:00;12.25;;;4.85;;
43807;SDS011;29438;50.664;10.098;2022-11-20T04:23:26;11.63;;;4.95;;
43807;SDS011;29438;50.664;10.098;2022-11-20T04:25:52;17.70;;;6.28;;
43807;SDS011;29438;50.664;10.098;2022-11-20T04:28:18;13.73;;;5.95;;
43807;SDS011;29438;50.664;10.098;2022-11-20T04:30:44;17.88;;;5.53;;
43807;SDS011;29438;50.664;10.098;2022-11-20T04:33:09;14.63;;;4.47;;
43807;SDS011;29438;50.664;10.098;2022-11-20T04:35:35;14.20;;;4.15;;
43807;SDS011;29438;50.664;10.098;2022-11-20T04:38:02;12.90;;;4.88;;
43807;SDS011;29438;50.664;10.098;2022-11-20T04:40:28;15.60;;;5.80;;
43807;SDS011;29438;50.664;10.098;2022-11-20T04:42:54;10.07;;;4.07;;
43807;SDS011;29438;50.664;10.098;2022-11-20T04:45:20;13.35;;;6.20;;
43807;SDS011;29438;50.664;10.098;2022-11-20T04:47:46;14.68;;;5.05;;
43807;SDS011;29438;50.664;10.098;2022-11-20T04:50:12;12.38;;;4.40;;
43807;SDS011;29438;50.664;10.098;2022-11-20T04:52:37;8.98;;;4.15;;
43807;SDS011;29438;50.664;10.098;2022-11-20T04:55:03;11.68;;;5.05;;
43807;SDS011;29438;50.664;10.098;2022-11-20T04:57:29;12.02;;;5.18;;
43807;SDS011;29438;50.664;10.098;2022-11-20T04:59:55;10.15;;;4.50;;
43807;SDS011;29438;50.664;10.098;2022-11-20T05:02:20;12.90;;;5.63;;
43807;SDS011;29438;50.664;10.098;2022-11-20T05:04:46;11.50;;;5.28;;
43807;SDS011;29438;50.664;10.098;2022-11-20T05:07:11;14.15;;;5.07;;
43807;SDS011;29438;50.664;10.098;2022-11-20T05:09:37;11.07;;;5.25;;
43807;SDS011;29438;50.664;10.098;2022-11-20T05:12:02;13.10;;;6.15;;
43807;SDS011;29438;50.664;10.098;2022-11-20T05:14:28;15.18;;;5.40;;
43807;SDS011;29438;50.664;10.098;2022-11-20T05:16:54;12.88;;;5.18;;
43807;SDS011;29438;50.664;10.098;2022-11-20T05:19:19;16.40;;;4.93;;
43807;SDS011;29438;50.664;10.098;2022-11-20T05:21:45;16.05;;;5.53;;
43807;SDS011;29438;50.664;10.098;2022-11-20T05:24:10;15.57;;;5.38;;
43807;SDS011;29438;50.664;10.098;2022-11-20T05:26:36;12.20;;;5.13;;
43807;SDS011;29438;50.664;10.098;2022-11-20T05:29:02;11.65;;;4.90;;
43807;SDS011;29438;50.664;10.098;2022-11-20T05:31:27;18.05;;;5.65;;
43807;SDS011;29438;50.664;10.098;2022-11-20T05:33:53;14.10;;;5.10;;
43807;SDS011;29438;50.664;10.098;2022-11-20T05:36:19;15.70;;;5.72;;
43807;SDS011;29438;50.664;10.098;2022-11-20T05:38:45;15.68;;;5.50;;
43807;SDS011;29438;50.664;10.098;2022-11-20T05:41:11;14.60;;;5.88;;
43807;SDS011;29438;50.664;10.098;2022-11-20T05:43:39;17.55;;;5.65;;
43807;SDS011;29438;50.664;10.098;2022-11-20T05:46:06;10.50;;;4.57;;
43807;SDS011;29438;50.664;10.098;2022-11-20T05:48:33;17.15;;;5.53;;
43807;SDS011;29438;50.664;10.098;2022-11-20T05:51:00;14.13;;;5.35;;
43807;SDS011;29438;50.664;10.098;2022-11-20T05:53:27;16.20;;;6.85;;
43807;SDS011;29438;50.664;10.098;2022-11-20T05:58:32;17.05;;;6.40;;
43807;SDS011;29438;50.664;10.098;2022-11-20T06:03:35;16.33;;;5.57;;
43807;SDS011;29438;50.664;10.098;2022-11-20T06:06:01;10.43;;;4.15;;
43807;SDS011;29438;50.664;10.098;2022-11-20T06:08:28;15.55;;;5.93;;
43807;SDS011;29438;50.664;10.098;2022-11-20T06:10:54;13.77;;;5.28;;
43807;SDS011;29438;50.664;10.098;2022-11-20T06:13:19;13.65;;;5.22;;
43807;SDS011;29438;50.664;10.098;2022-11-20T06:15:52;14.73;;;5.97;;
43807;SDS011;29438;50.664;10.098;2022-11-20T06:18:18;15.50;;;6.35;;
43807;SDS011;29438;50.664;10.098;2022-11-20T06:20:44;12.57;;;5.68;;
43807;SDS011;29438;50.664;10.098;2022-11-20T06:23:11;15.88;;;5.68;;
43807;SDS011;29438;50.664;10.098;2022-11-20T06:25:40;18.63;;;6.32;;
43807;SDS011;29438;50.664;10.098;2022-11-20T06:28:07;20.23;;;6.85;;
43807;SDS011;29438;50.664;10.098;2022-11-20T06:30:34;16.63;;;5.60;;
43807;SDS011;29438;50.664;10.098;2022-11-20T06:33:00;17.77;;;6.13;;
43807;SDS011;29438;50.664;10.098;2022-11-20T06:35:25;23.00;;;6.20;;
43807;SDS011;29438;50.664;10.098;2022-11-20T06:37:51;15.93;;;6.55;;
43807;SDS011;29438;50.664;10.098;2022-11-20T06:40:16;13.63;;;5.88;;
43807;SDS011;29438;50.664;10.098;2022-11-20T06:42:42;19.10;;;6.63;;
43807;SDS011;29438;50.664;10.098;2022-11-20T06:45:08;18.25;;;7.75;;
43807;SDS011;29438;50.664;10.098;2022-11-20T06:47:34;20.23;;;6.22;;
43807;SDS011;29438;50.664;10.098;2022-11-20T06:49:59;20.48;;;7.25;;
43807;SDS011;29438;50.664;10.098;2022-11-20T06:52:25;15.93;;;6.72;;
43807;SDS011;29438;50.664;10.098;2022-11-20T06:54:50;14.88;;;6.15;;
43807;SDS011;29438;50.664;10.098;2022-11-20T06:57:16;15.07;;;5.97;;
43807;SDS011;29438;50.664;10.098;2022-11-20T06:59:42;17.45;;;6.00;;
43807;SDS011;29438;50.664;10.098;2022-11-20T07:02:09;15.82;;;6.55;;
43807;SDS011;29438;50.664;10.098;2022-11-20T07:04:36;16.52;;;7.30;;
43807;SDS011;29438;50.664;10.098;2022-11-20T07:07:02;19.38;;;6.45;;
43807;SDS011;29438;50.664;10.098;2022-11-20T07:09:27;13.10;;;6.13;;
43807;SDS011;29438;50.664;10.098;2022-11-20T07:11:53;14.75;;;6.15;;
43807;SDS011;29438;50.664;10.098;2022-11-20T07:14:18;21.13;;;6.72;;
43807;SDS011;29438;50.664;10.098;2022-11-20T07:16:44;17.02;;;6.65;;
43807;SDS011;29438;50.664;10.098;2022-11-20T07:19:09;16.15;;;5.93;;
43807;SDS011;29438;50.664;10.098;2022-11-20T07:21:35;19.23;;;7.63;;
43807;SDS011;29438;50.664;10.098;2022-11-20T07:24:01;15.60;;;6.85;;
43807;SDS011;29438;50.664;10.098;2022-11-20T07:26:26;20.20;;;7.13;;
43807;SDS011;29438;50.664;10.098;2022-11-20T07:28:52;20.58;;;6.80;;
43807;SDS011;29438;50.664;10.098;2022-11-20T07:31:17;18.13;;;7.45;;
43807;SDS011;29438;50.664;10.098;2022-11-20T07:33:43;22.67;;;8.73;;
43807;SDS011;29438;50.664;10.098;2022-11-20T07:36:08;24.55;;;8.07;;
43807;SDS011;29438;50.664;10.098;2022-11-20T07:38:34;19.00;;;6.65;;
43807;SDS011;29438;50.664;10.098;2022-11-20T07:40:59;20.58;;;6.63;;
43807;SDS011;29438;50.664;10.098;2022-11-20T07:43:28;21.15;;;6.97;;
43807;SDS011;29438;50.664;10.098;2022-11-20T07:45:57;20.35;;;7.25;;
43807;SDS011;29438;50.664;10.098;2022-11-20T07:48:23;15.68;;;5.85;;
43807;SDS011;29438;50.664;10.098;2022-11-20T07:50:52;21.08;;;7.60;;
43807;SDS011;29438;50.664;10.098;2022-11-20T07:53:18;18.55;;;5.93;;
43807;SDS011;29438;50.664;10.098;2022-11-20T07:55:45;18.65;;;6.82;;
43807;SDS011;29438;50.664;10.098;2022-11-20T07:58:11;16.63;;;6.90;;
43807;SDS011;29438;50.664;10.098;2022-11-20T08:00:37;17.92;;;6.35;;
43807;SDS011;29438;50.664;10.098;2022-11-20T08:03:03;23.00;;;7.22;;
43807;SDS011;29438;50.664;10.098;2022-11-20T08:05:29;24.45;;;8.18;;
43807;SDS011;29438;50.664;10.098;2022-11-20T08:07:55;20.98;;;7.63;;
43807;SDS011;29438;50.664;10.098;2022-11-20T08:10:20;17.08;;;6.93;;
43807;SDS011;29438;50.664;10.098;2022-11-20T08:12:47;20.85;;;7.85;;
43807;SDS011;29438;50.664;10.098;2022-11-20T08:15:32;27.48;;;9.27;;
43807;SDS011;29438;50.664;10.098;2022-11-20T08:18:17;22.42;;;8.07;;
43807;SDS011;29438;50.664;10.098;2022-11-20T08:23:09;17.00;;;7.35;;
43807;SDS011;29438;50.664;10.098;2022-11-20T08:25:35;23.55;;;7.80;;
43807;SDS011;29438;50.664;10.098;2022-11-20T08:28:03;25.67;;;8.45;;
43807;SDS011;29438;50.664;10.098;2022-11-20T08:30:30;29.55;;;9.68;;
43807;SDS011;29438;50.664;10.098;2022-11-20T08:33:03;27.30;;;9.30;;
43807;SDS011;29438;50.664;10.098;2022-11-20T08:35:36;22.42;;;8.80;;
43807;SDS011;29438;50.664;10.098;2022-11-20T08:38:03;25.52;;;9.50;;
43807;SDS011;29438;50.664;10.098;2022-11-20T08:40:30;25.80;;;9.00;;
43807;SDS011;29438;50.664;10.098;2022-11-20T08:42:56;28.23;;;9.10;;
43807;SDS011;29438;50.664;10.098;2022-11-20T08:45:21;27.02;;;10.73;;
43807;SDS011;29438;50.664;10.098;2022-11-20T08:47:47;26.40;;;9.75;;
43807;SDS011;29438;50.664;10.098;2022-11-20T08:50:14;27.80;;;10.05;;
43807;SDS011;29438;50.664;10.098;2022-11-20T08:52:40;30.92;;;9.40;;
43807;SDS011;29438;50.664;10.098;2022-11-20T08:55:07;28.50;;;8.65;;
43807;SDS011;29438;50.664;10.098;2022-11-20T08:57:33;32.95;;;9.90;;
43807;SDS011;29438;50.664;10.098;2022-11-20T08:59:59;31.55;;;10.57;;
43807;SDS011;29438;50.664;10.098;2022-11-20T09:02:25;36.33;;;9.90;;
43807;SDS011;29438;50.664;10.098;2022-11-20T09:04:51;33.00;;;11.23;;
43807;SDS011;29438;50.664;10.098;2022-11-20T09:07:17;34.95;;;9.70;;
43807;SDS011;29438;50.664;10.098;2022-11-20T09:09:43;39.50;;;12.02;;
43807;SDS011;29438;50.664;10.098;2022-11-20T09:12:08;32.65;;;9.85;;
43807;SDS011;29438;50.664;10.098;2022-11-20T09:14:34;36.22;;;10.45;;
43807;SDS011;29438;50.664;10.098;2022-11-20T09:16:59;36.55;;;11.23;;
43807;SDS011;29438;50.664;10.098;2022-11-20T09:19:25;36.10;;;11.98;;
43807;SDS011;29438;50.664;10.098;2022-11-20T09:21:51;32.03;;;10.23;;
43807;SDS011;29438;50.664;10.098;2022-11-20T09:24:16;31.20;;;9.63;;
43807;SDS011;29438;50.664;10.098;2022-11-20T09:26:42;29.55;;;9.43;;
43807;SDS011;29438;50.664;10.098;2022-11-20T09:29:08;43.90;;;13.77;;
43807;SDS011;29438;50.664;10.098;2022-11-20T09:31:34;50.75;;;14.63;;
43807;SDS011;29438;50.664;10.098;2022-11-20T09:33:59;47.08;;;15.57;;
43807;SDS011;29438;50.664;10.098;2022-11-20T09:36:25;42.65;;;15.00;;
43807;SDS011;29438;50.664;10.098;2022-11-20T09:38:51;45.17;;;15.35;;
43807;SDS011;29438;50.664;10.098;2022-11-20T09:47:12;33.25;;;11.00;;
43807;SDS011;29438;50.664;10.098;2022-11-20T09:52:17;39.47;;;12.57;;
43807;SDS011;29438;50.664;10.098;2022-11-20T09:54:56;34.67;;;11.07;;
43807;SDS011;29438;50.664;10.098;2022-11-20T09:57:29;35.30;;;11.52;;
43807;SDS011;29438;50.664;10.098;2022-11-20T10:00:01;40.95;;;12.05;;
43807;SDS011;29438;50.664;10.098;2022-11-20T10:02:30;32.50;;;10.73;;
43807;SDS011;29438;50.664;10.098;2022-11-20T10:16:09;37.13;;;11.48;;
43807;SDS011;29438;50.664;10.098;2022-11-20T10:19:02;32.83;;;10.32;;
43807;SDS011;29438;50.664;10.098;2022-11-20T10:29:47;16.85;;;5.25;;
43807;SDS011;29438;50.664;10.098;2022-11-20T10:32:41;21.75;;;7.28;;
43807;SDS011;29438;50.664;10.098;2022-11-20T10:35:16;26.85;;;7.20;;
43807;SDS011;29438;50.664;10.098;2022-11-20T10:37:55;19.70;;;6.10;;
43807;SDS011;29438;50.664;10.098;2022-11-20T10:40:29;22.52;;;7.63;;
43807;SDS011;29438;50.664;10.098;2022-11-20T10:43:01;16.00;;;6.60;;
43807;SDS011;29438;50.664;10.098;2022-11-20T10:48:28;16.88;;;5.93;;
43807;SDS011;29438;50.664;10.098;2022-11-20T10:59:04;20.48;;;7.93;;
43807;SDS011;29438;50.664;10.098;2022-11-20T11:01:40;28.42;;;11.27;;
43807;SDS011;29438;50.664;10.098;2022-11-20T11:04:53;22.00;;;7.80;;
43807;SDS011;29438;50.664;10.098;2022-11-20T11:06:53;22.58;;;8.68;;
43807;SDS011;29438;50.664;10.098;2022-11-20T11:12:14;18.80;;;7.03;;
43807;SDS011;29438;50.664;10.098;2022-11-20T11:14:50;21.15;;;8.13;;
43807;SDS011;29438;50.664;10.098;2022-11-20T11:25:55;21.77;;;8.00;;
43807;SDS011;29438;50.664;10.098;2022-11-20T11:28:23;19.92;;;7.90;;
43807;SDS011;29438;50.664;10.098;2022-11-20T11:30:51;19.27;;;7.60;;
43807;SDS011;29438;50.664;10.098;2022-11-20T11:33:27;19.83;;;6.10;;
43807;SDS011;29438;50.664;10.098;2022-11-20T11:35:58;19.73;;;6.97;;
43807;SDS011;29438;50.664;10.098;2022-11-20T11:38:36;19.53;;;6.50;;
43807;SDS011;29438;50.664;10.098;2022-11-20T11:41:09;11.20;;;4.05;;
43807;SDS011;29438;50.664;10.098;2022-11-20T11:43:48;13.18;;;4.55;;
43807;SDS011;29438;50.664;10.098;2022-11-20T11:46:52;17.90;;;5.40;;
43807;SDS011;29438;50.664;10.098;2022-11-20T11:49:20;14.48;;;5.32;;
43807;SDS011;29438;50.664;10.098;2022-11-20T11:54:16;7.40;;;2.35;;
43807;SDS011;29438;50.664;10.098;2022-11-20T11:56:53;12.13;;;5.25;;
43807;SDS011;29438;50.664;10.098;2022-11-20T11:59:24;15.57;;;5.53;;
43807;SDS011;29438;50.664;10.098;2022-11-20T12:02:23;19.55;;;7.45;;
43807;SDS011;29438;50.664;10.098;2022-11-20T12:05:09;16.50;;;6.00;;
43807;SDS011;29438;50.664;10.098;2022-11-20T12:08:02;18.63;;;6.85;;
43807;SDS011;29438;50.664;10.098;2022-11-20T12:10:48;18.02;;;6.05;;
43807;SDS011;29438;50.664;10.098;2022-11-20T12:15:59;18.90;;;6.70;;
43807;SDS011;29438;50.664;10.098;2022-11-20T12:18:26;19.17;;;6.53;;
43807;SDS011;29438;50.664;10.098;2022-11-20T12:21:12;26.08;;;9.75;;
43807;SDS011;29438;50.664;10.098;2022-11-20T12:32:02;11.73;;;4.25;;
43807;SDS011;29438;50.664;10.098;2022-11-20T12:39:35;16.95;;;5.93;;
43807;SDS011;29438;50.664;10.098;2022-11-20T12:42:15;19.25;;;7.18;;
43807;SDS011;29438;50.664;10.098;2022-11-20T12:53:39;21.35;;;7.47;;
43807;SDS011;29438;50.664;10.098;2022-11-20T13:05:16;14.43;;;4.93;;
43807;SDS011;29438;50.664;10.098;2022-11-20T13:07:57;15.20;;;6.07;;
43807;SDS011;29438;50.664;10.098;2022-11-20T13:10:27;13.70;;;5.07;;
43807;SDS011;29438;50.664;10.098;2022-11-20T13:13:17;12.95;;;5.38;;
43807;SDS011;29438;50.664;10.098;2022-11-20T13:15:56;14.15;;;5.03;;
43807;SDS011;29438;50.664;10.098;2022-11-20T13:18:27;12.40;;;4.85;;
43807;SDS011;29438;50.664;10.098;2022-11-20T13:20:58;16.33;;;5.90;;
43807;SDS011;29438;50.664;10.098;2022-11-20T13:23:25;13.15;;;5.53;;
43807;SDS011;29438;50.664;10.098;2022-11-20T13:26:02;14.40;;;5.75;;
43807;SDS011;29438;50.664;10.098;2022-11-20T13:28:40;15.75;;;5.90;;
43807;SDS011;29438;50.664;10.098;2022-11-20T13:31:09;17.80;;;5.88;;
43807;SDS011;29438;50.664;10.098;2022-11-20T13:33:53;17.63;;;5.60;;
43807;SDS011;29438;50.664;10.098;2022-11-20T13:36:21;17.45;;;6.32;;
43807;SDS011;29438;50.664;10.098;2022-11-20T13:38:50;16.05;;;6.00;;
43807;SDS011;29438;50.664;10.098;2022-11-20T13:41:30;12.80;;;4.70;;
43807;SDS011;29438;50.664;10.098;2022-11-20T13:44:08;9.20;;;4.22;;
43807;SDS011;29438;50.664;10.098;2022-11-20T13:46:37;12.30;;;4.05;;
43807;SDS011;29438;50.664;10.098;2022-11-20T13:49:15;12.75;;;4.47;;
43807;SDS011;29438;50.664;10.098;2022-11-20T14:03:56;10.05;;;3.58;;
43807;SDS011;29438;50.664;10.098;2022-11-20T14:06:26;15.10;;;6.78;;
43807;SDS011;29438;50.664;10.098;2022-11-20T14:08:57;15.75;;;6.97;;
43807;SDS011;29438;50.664;10.098;2022-11-20T14:11:24;13.23;;;4.70;;
43807;SDS011;29438;50.664;10.098;2022-11-20T14:14:04;11.23;;;3.88;;
43807;SDS011;29438;50.664;10.098;2022-11-20T14:16:40;10.50;;;4.57;;
43807;SDS011;29438;50.664;10.098;2022-11-20T14:21:53;16.50;;;4.78;;
43807;SDS011;29438;50.664;10.098;2022-11-20T14:24:39;16.15;;;5.10;;
43807;SDS011;29438;50.664;10.098;2022-11-20T14:27:10;14.13;;;5.15;;
43807;SDS011;29438;50.664;10.098;2022-11-20T14:29:45;17.88;;;5.68;;
43807;SDS011;29438;50.664;10.098;2022-11-20T14:32:14;12.82;;;4.50;;
43807;SDS011;29438;50.664;10.098;2022-11-20T14:34:43;13.48;;;5.10;;
43807;SDS011;29438;50.664;10.098;2022-11-20T14:37:11;14.75;;;5.13;;
43807;SDS011;29438;50.664;10.098;2022-11-20T14:39:42;14.85;;;5.78;;
43807;SDS011;29438;50.664;10.098;2022-11-20T14:42:23;12.63;;;5.07;;
43807;SDS011;29438;50.664;10.098;2022-11-20T14:44:51;18.67;;;5.45;;
43807;SDS011;29438;50.664;10.098;2022-11-20T14:47:26;17.10;;;5.95;;
43807;SDS011;29438;50.664;10.098;2022-11-20T14:49:54;15.68;;;6.32;;
43807;SDS011;29438;50.664;10.098;2022-11-20T14:52:22;15.40;;;5.28;;
43807;SDS011;29438;50.664;10.098;2022-11-20T14:54:50;15.85;;;6.65;;
43807;SDS011;29438;50.664;10.098;2022-11-20T14:57:20;16.90;;;6.30;;
43807;SDS011;29438;50.664;10.098;2022-11-20T15:02:43;17.27;;;6.72;;
43807;SDS011;29438;50.664;10.098;2022-11-20T15:05:10;16.65;;;6.70;;
43807;SDS011;29438;50.664;10.098;2022-11-20T15:07:38;16.25;;;6.82;;
43807;SDS011;29438;50.664;10.098;2022-11-20T15:10:10;16.17;;;6.32;;
43807;SDS011;29438;50.664;10.098;2022-11-20T15:12:46;18.95;;;8.00;;
43807;SDS011;29438;50.664;10.098;2022-11-20T15:15:19;18.08;;;7.35;;
43807;SDS011;29438;50.664;10.098;2022-11-20T15:17:49;20.27;;;7.60;;
43807;SDS011;29438;50.664;10.098;2022-11-20T15:20:16;20.38;;;7.80;;
43807;SDS011;29438;50.664;10.098;2022-11-20T15:22:42;15.90;;;5.93;;
43807;SDS011;29438;50.664;10.098;2022-11-20T15:25:11;16.30;;;5.90;;
43807;SDS011;29438;50.664;10.098;2022-11-20T15:27:38;19.27;;;5.82;;
43807;SDS011;29438;50.664;10.098;2022-11-20T15:30:22;24.88;;;6.78;;
43807;SDS011;29438;50.664;10.098;2022-11-20T15:32:48;15.88;;;6.25;;
43807;SDS011;29438;50.664;10.098;2022-11-20T15:35:14;17.80;;;6.20;;
43807;SDS011;29438;50.664;10.098;2022-11-20T15:37:40;19.75;;;6.40;;
43807;SDS011;29438;50.664;10.098;2022-11-20T15:40:06;16.88;;;6.90;;
43807;SDS011;29438;50.664;10.098;2022-11-20T15:42:33;20.83;;;8.00;;
43807;SDS011;29438;50.664;10.098;2022-11-20T15:44:59;20.98;;;8.00;;
43807;SDS011;29438;50.664;10.098;2022-11-20T15:47:27;22.50;;;8.70;;
43807;SDS011;29438;50.664;10.098;2022-11-20T15:49:55;19.08;;;6.63;;
43807;SDS011;29438;50.664;10.098;2022-11-20T15:52:21;18.20;;;6.55;;
43807;SDS011;29438;50.664;10.098;2022-11-20T15:54:46;22.33;;;7.03;;
43807;SDS011;29438;50.664;10.098;2022-11-20T15:57:12;15.35;;;5.95;;
43807;SDS011;29438;50.664;10.098;2022-11-20T15:59:38;15.00;;;6.60;;
43807;SDS011;29438;50.664;10.098;2022-11-20T16:02:12;19.17;;;7.50;;
43807;SDS011;29438;50.664;10.098;2022-11-20T16:04:38;18.50;;;7.35;;
43807;SDS011;29438;50.664;10.098;2022-11-20T16:07:04;24.55;;;7.75;;
43807;SDS011;29438;50.664;10.098;2022-11-20T16:09:30;20.35;;;6.97;;
43807;SDS011;29438;50.664;10.098;2022-11-20T16:11:55;16.42;;;6.82;;
43807;SDS011;29438;50.664;10.098;2022-11-20T16:14:24;15.55;;;6.35;;
43807;SDS011;29438;50.664;10.098;2022-11-20T16:17:09;15.68;;;5.97;;
43807;SDS011;29438;50.664;10.098;2022-11-20T16:19:34;20.20;;;8.10;;
43807;SDS011;29438;50.664;10.098;2022-11-20T16:22:00;21.17;;;6.47;;
43807;SDS011;29438;50.664;10.098;2022-11-20T16:24:28;16.83;;;6.88;;
43807;SDS011;29438;50.664;10.098;2022-11-20T16:26:54;17.45;;;6.45;;
43807;SDS011;29438;50.664;10.098;2022-11-20T16:29:20;21.70;;;7.95;;
43807;SDS011;29438;50.664;10.098;2022-11-20T16:31:46;20.50;;;7.63;;
43807;SDS011;29438;50.664;10.098;2022-11-20T16:34:11;22.77;;;7.85;;
43807;SDS011;29438;50.664;10.098;2022-11-20T16:36:40;22.00;;;7.70;;